Time;durP1;ratioP1;P1;durP2;ratioP2;P2;SDS_P1;SDS_P2;PMS_P1;PMS_P2;Temp;Humidity;BMP_temperature;BMP_pressure;BME280_temperature;BME280_humidity;BME280_pressure;Samples;Min_cycle;Max_cycle;Signal;HPM_P1;HPM_P2
2022/07/18 00:01:05;;;;;;;5.85;2.92;;;;;;;27.88;27.57;101588.38;5033180;28;20061;-67
2022/07/18 00:03:32;;;;;;;8.45;2.95;;;;;;;27.74;27.38;101587.22;5024528;28;20396;-67
2022/07/18 00:05:59;;;;;;;8.27;2.80;;;;;;;27.41;27.58;101601.84;5030054;28;20061;-68
2022/07/18 00:08:27;;;;;;;7.25;2.95;;;;;;;27.15;27.50;101598.59;5037960;28;20053;-67
2022/07/18 00:10:54;;;;;;;7.72;3.17;;;;;;;27.19;29.03;101593.75;5029285;28;20087;-66
2022/07/18 00:13:22;;;;;;;6.95;3.22;;;;;;;27.42;28.47;101597.00;5035944;28;20144;-68
2022/07/18 00:15:49;;;;;;;6.30;3.05;;;;;;;27.38;29.49;101596.19;5037183;28;20231;-67
2022/07/18 00:18:16;;;;;;;7.13;3.30;;;;;;;27.29;28.76;101590.09;5031896;28;20096;-68
2022/07/18 00:20:44;;;;;;;8.57;3.60;;;;;;;27.16;29.52;101586.91;5035982;28;20053;-67
2022/07/18 00:23:11;;;;;;;7.25;3.45;;;;;;;27.04;28.96;101592.94;5036018;28;20464;-67
2022/07/18 00:25:39;;;;;;;9.35;3.35;;;;;;;26.98;29.73;101586.09;5034941;28;20390;-67
2022/07/18 00:28:06;;;;;;;7.28;3.20;;;;;;;26.99;30.10;101592.56;5039581;28;20069;-67
2022/07/18 00:30:33;;;;;;;8.07;2.80;;;;;;;26.92;29.91;101590.53;5025826;28;20054;-68
2022/07/18 00:33:00;;;;;;;12.45;3.85;;;;;;;26.91;30.03;101580.44;5039284;28;20038;-68
2022/07/18 00:35:28;;;;;;;6.10;3.03;;;;;;;26.85;30.22;101586.91;5033110;28;20424;-67
2022/07/18 00:37:55;;;;;;;9.73;3.92;;;;;;;26.98;30.40;101588.09;5026686;28;20057;-67
2022/07/18 00:40:22;;;;;;;7.72;3.17;;;;;;;26.82;30.71;101587.69;5029474;28;20556;-68
2022/07/18 00:42:50;;;;;;;9.63;3.40;;;;;;;26.81;30.58;101588.91;5050902;28;20049;-64
2022/07/18 00:45:17;;;;;;;10.90;3.28;;;;;;;26.69;30.68;101589.31;5034922;28;20050;-62
2022/07/18 00:47:45;;;;;;;6.78;3.30;;;;;;;26.48;31.59;101585.19;5021769;28;20053;-66
2022/07/18 00:50:12;;;;;;;8.50;3.15;;;;;;;26.59;31.56;101582.38;5034980;28;20064;-67
2022/07/18 00:52:39;;;;;;;6.85;2.92;;;;;;;26.54;31.57;101580.78;5028285;28;20053;-67
2022/07/18 00:55:08;;;;;;;7.68;3.00;;;;;;;26.47;31.28;101580.75;5034164;28;20053;-67
2022/07/18 00:57:37;;;;;;;6.22;3.20;;;;;;;26.66;30.43;101569.06;5026793;28;20050;-68
2022/07/18 01:02:52;;;;;;;8.45;3.13;;;;;;;26.51;31.83;101581.59;5042493;28;20049;-67
2022/07/18 01:05:19;;;;;;;9.35;3.30;;;;;;;26.36;31.42;101574.25;5014039;28;20097;-68
2022/07/18 01:07:47;;;;;;;6.90;3.30;;;;;;;26.34;32.31;101576.69;5021668;28;20061;-67
2022/07/18 01:10:14;;;;;;;10.88;3.00;;;;;;;26.31;31.88;101568.22;5022629;28;20769;-63
2022/07/18 01:12:41;;;;;;;8.73;3.28;;;;;;;26.24;32.58;101571.81;5033677;28;20065;-63
2022/07/18 01:15:09;;;;;;;6.32;3.30;;;;;;;26.08;33.06;101584.69;5031813;28;20504;-64
2022/07/18 01:17:36;;;;;;;9.30;3.47;;;;;;;26.01;33.31;101570.50;5037704;28;20065;-63
2022/07/18 01:20:05;;;;;;;12.05;4.13;;;;;;;26.07;32.92;101571.75;5022786;28;20053;-62
2022/07/18 01:22:32;;;;;;;11.15;4.55;;;;;;;25.98;33.44;101569.28;5034779;28;20057;-65
2022/07/18 01:25:00;;;;;;;6.22;3.40;;;;;;;26.01;32.95;101570.50;5034280;28;20056;-63
2022/07/18 01:27:27;;;;;;;6.55;3.28;;;;;;;26.00;32.92;101572.50;5036474;28;20069;-63
2022/07/18 01:29:55;;;;;;;9.85;3.55;;;;;;;26.06;33.04;101573.78;5023967;28;20527;-63
2022/07/18 01:32:22;;;;;;;9.38;3.50;;;;;;;26.10;33.97;101571.75;5030986;28;20425;-63
2022/07/18 01:34:50;;;;;;;7.90;3.50;;;;;;;26.05;33.77;101568.50;5016517;28;20053;-63
2022/07/18 01:37:17;;;;;;;8.45;3.35;;;;;;;26.04;33.58;101578.22;5022067;28;20050;-63
2022/07/18 01:39:45;;;;;;;8.95;3.50;;;;;;;25.83;32.76;101584.53;5034842;28;20057;-64
2022/07/18 01:42:13;;;;;;;7.80;3.75;;;;;;;25.93;33.11;101580.94;5060455;28;20058;-63
2022/07/18 01:44:41;;;;;;;8.82;3.30;;;;;;;25.96;33.24;101577.31;5026409;28;20046;-63
2022/07/18 01:47:09;;;;;;;8.23;3.42;;;;;;;25.88;33.62;101583.34;5032554;28;20049;-63
2022/07/18 01:49:37;;;;;;;6.30;3.25;;;;;;;26.01;33.58;101573.34;5021570;28;20655;-67
2022/07/18 01:52:05;;;;;;;6.88;3.35;;;;;;;25.87;34.56;101574.09;5013306;28;20061;-66
2022/07/18 01:54:34;;;;;;;9.68;3.55;;;;;;;25.66;34.67;101573.97;5022514;28;20054;-67
2022/07/18 01:57:03;;;;;;;7.72;3.30;;;;;;;25.70;34.93;101562.72;5029236;28;20053;-67
2022/07/18 01:59:31;;;;;;;7.47;3.58;;;;;;;25.61;35.28;101560.25;5031905;28;20056;-68
2022/07/18 02:01:58;;;;;;;7.25;3.58;;;;;;;25.58;35.02;101556.19;5030869;28;20140;-67
2022/07/18 02:07:12;;;;;;;7.13;3.33;;;;;;;25.50;35.07;101557.38;5022589;28;20057;-66
2022/07/18 02:09:40;;;;;;;8.50;3.85;;;;;;;25.47;35.55;101551.72;5034145;28;20060;-66
2022/07/18 02:12:07;;;;;;;12.25;3.25;;;;;;;25.45;35.44;101546.44;5033957;28;20496;-67
2022/07/18 02:14:34;;;;;;;8.30;3.70;;;;;;;25.50;35.08;101542.44;5034124;28;20083;-67
2022/07/18 02:17:02;;;;;;;10.40;3.70;;;;;;;25.56;35.14;101536.03;5032210;28;20056;-67
2022/07/18 02:19:29;;;;;;;6.85;3.15;;;;;;;25.42;35.44;101537.94;5032111;28;20049;-68
2022/07/18 02:21:57;;;;;;;5.75;2.92;;;;;;;25.35;35.84;101535.09;5023780;28;20060;-66
2022/07/18 02:24:24;;;;;;;7.80;3.67;;;;;;;25.45;35.00;101534.38;5034112;28;20638;-67
2022/07/18 02:26:51;;;;;;;5.30;2.80;;;;;;;25.43;35.87;101536.75;5016834;28;20057;-67
2022/07/18 02:29:20;;;;;;;5.93;3.53;;;;;;;25.41;35.29;101542.81;5018762;28;20072;-68
2022/07/18 02:31:47;;;;;;;6.25;3.30;;;;;;;25.41;34.57;101542.00;5032250;28;20056;-68
2022/07/18 02:34:14;;;;;;;9.23;3.80;;;;;;;25.25;35.10;101561.19;5021126;28;20061;-67
2022/07/18 02:36:42;;;;;;;8.57;3.30;;;;;;;25.35;34.74;101552.00;5033357;28;20049;-67
2022/07/18 02:39:09;;;;;;;8.88;3.20;;;;;;;25.54;34.56;101551.75;5033560;28;20788;-63
2022/07/18 02:41:37;;;;;;;6.85;3.00;;;;;;;25.45;35.37;101556.94;5033334;28;20068;-63
2022/07/18 02:44:04;;;;;;;8.88;3.38;;;;;;;25.42;35.19;101552.06;5033803;28;20080;-63
2022/07/18 02:46:32;;;;;;;7.25;3.13;;;;;;;25.34;35.54;101539.91;5030027;28;20045;-63
2022/07/18 02:48:59;;;;;;;10.27;3.67;;;;;;;25.27;35.41;101545.50;5035077;28;20056;-64
2022/07/18 02:51:27;;;;;;;9.00;3.13;;;;;;;25.27;35.46;101553.97;5014322;28;20050;-63
2022/07/18 02:53:54;;;;;;;6.30;3.42;;;;;;;25.24;35.29;101551.94;5032499;28;20053;-62
2022/07/18 02:56:22;;;;;;;9.43;3.58;;;;;;;25.28;35.79;101557.59;5032820;28;20050;-63
2022/07/18 02:58:49;;;;;;;6.22;3.15;;;;;;;25.25;35.83;101549.91;5020300;28;20053;-63
2022/07/18 03:01:17;;;;;;;8.65;3.45;;;;;;;25.32;35.75;101558.41;5030226;28;20045;-62
2022/07/18 03:03:44;;;;;;;8.68;3.55;;;;;;;25.38;35.74;101559.72;5034775;28;20049;-62
2022/07/18 03:06:12;;;;;;;8.57;3.80;;;;;;;25.33;36.00;101554.41;5031095;28;20045;-64
2022/07/18 03:08:39;;;;;;;6.50;3.38;;;;;;;25.30;36.08;101561.63;5022675;28;20050;-64
2022/07/18 03:11:06;;;;;;;8.10;3.40;;;;;;;25.28;36.07;101566.84;5031386;28;20046;-64
2022/07/18 03:13:34;;;;;;;8.82;3.42;;;;;;;25.28;36.26;101568.88;5031562;28;20658;-62
2022/07/18 03:16:01;;;;;;;8.30;3.53;;;;;;;25.31;36.08;101565.28;5031153;28;20057;-64
2022/07/18 03:18:28;;;;;;;8.27;3.55;;;;;;;25.42;35.64;101561.34;5034831;28;20072;-63
2022/07/18 03:20:56;;;;;;;7.88;3.70;;;;;;;25.37;36.35;101560.88;5024124;28;20068;-63
2022/07/18 03:23:23;;;;;;;6.57;3.35;;;;;;;25.32;36.24;101564.06;5035235;28;20053;-63
2022/07/18 03:25:50;;;;;;;10.68;3.65;;;;;;;25.31;36.58;101556.81;5036429;28;20041;-63
2022/07/18 03:28:18;;;;;;;9.75;3.40;;;;;;;25.30;36.38;101541.88;5036936;28;20053;-62
2022/07/18 03:30:45;;;;;;;8.00;3.45;;;;;;;25.74;35.63;101540.94;5034003;28;20060;-63
2022/07/18 03:33:12;;;;;;;5.57;3.28;;;;;;;25.22;35.87;101539.41;5037274;28;20211;-63
2022/07/18 03:35:40;;;;;;;12.88;3.20;;;;;;;25.19;36.12;101537.41;5035273;28;20049;-64
2022/07/18 03:38:07;;;;;;;9.80;3.55;;;;;;;24.92;36.70;101533.16;5037035;28;20045;-62
2022/07/18 03:40:34;;;;;;;11.30;3.58;;;;;;;24.88;36.63;101537.97;5051387;28;20516;-63
2022/07/18 03:43:02;;;;;;;8.18;3.38;;;;;;;24.81;36.60;101538.69;5036655;28;20050;-62
2022/07/18 03:45:29;;;;;;;6.97;3.35;;;;;;;24.84;36.89;101529.50;5018462;28;20057;-63
2022/07/18 03:47:56;;;;;;;9.43;3.22;;;;;;;24.89;37.18;101529.13;5036706;28;20053;-62
2022/07/18 03:50:24;;;;;;;6.50;3.17;;;;;;;24.95;36.75;101524.72;5023424;28;20045;-62
2022/07/18 03:52:51;;;;;;;7.10;3.25;;;;;;;24.96;36.24;101534.00;5035626;28;20519;-62
2022/07/18 03:55:19;;;;;;;12.73;3.30;;;;;;;24.89;36.40;101526.31;5033826;28;20057;-62
2022/07/18 03:57:46;;;;;;;7.07;3.50;;;;;;;24.90;36.50;101535.53;5042057;28;20054;-63
2022/07/18 04:00:14;;;;;;;9.70;3.05;;;;;;;24.87;36.25;101525.88;5030912;28;20060;-63
2022/07/18 04:02:45;;;;;;;7.22;3.38;;;;;;;24.77;36.16;101531.44;5048450;28;20404;-63
2022/07/18 04:05:14;;;;;;;7.85;3.28;;;;;;;24.84;35.16;101526.66;5024229;28;20169;-62
2022/07/18 04:07:42;;;;;;;7.55;3.40;;;;;;;24.89;35.34;101529.13;5018880;28;20054;-63
2022/07/18 04:10:10;;;;;;;8.70;3.00;;;;;;;24.97;35.74;101530.78;5027706;28;20775;-63
2022/07/18 04:12:45;;;;;;;10.75;3.30;;;;;;;24.79;34.96;101540.31;5035297;28;20050;-63
2022/07/18 04:15:13;;;;;;;7.32;3.42;;;;;;;24.89;35.72;101548.03;5049251;28;20053;-64
2022/07/18 04:17:40;;;;;;;8.30;3.50;;;;;;;24.97;36.19;101553.34;5035189;28;20053;-62
2022/07/18 04:20:08;;;;;;;9.77;3.35;;;;;;;24.80;34.26;101550.38;5016464;28;20054;-62
2022/07/18 04:22:46;;;;;;;10.88;3.45;;;;;;;24.82;34.91;101550.78;5027436;28;20057;-64
2022/07/18 04:25:13;;;;;;;8.75;2.85;;;;;;;24.82;34.56;101554.44;5030733;28;20046;-64
2022/07/18 04:27:40;;;;;;;10.80;2.70;;;;;;;25.08;34.88;101542.13;5031478;28;20053;-63
2022/07/18 04:30:09;;;;;;;6.55;2.97;;;;;;;25.10;34.87;101546.19;5033410;28;20413;-63
2022/07/18 04:32:37;;;;;;;5.28;2.78;;;;;;;25.16;34.48;101550.25;5031361;28;20500;-66
2022/07/18 04:35:05;;;;;;;7.78;2.55;;;;;;;25.31;34.28;101534.25;5032128;28;20105;-63
2022/07/18 04:37:33;;;;;;;9.23;2.83;;;;;;;25.32;34.66;101535.84;5034366;28;20053;-63
2022/07/18 04:40:01;;;;;;;8.23;2.55;;;;;;;25.31;34.58;101525.78;5031846;28;20041;-63
2022/07/18 04:42:30;;;;;;;5.57;2.90;;;;;;;25.31;34.32;101522.97;5034361;28;20064;-63
2022/07/18 04:44:58;;;;;;;5.77;2.67;;;;;;;25.28;34.85;101518.91;5034212;28;20057;-63
2022/07/18 04:47:27;;;;;;;6.25;2.55;;;;;;;25.22;34.87;101508.41;5033196;28;20053;-63
2022/07/18 04:49:56;;;;;;;5.82;2.30;;;;;;;25.19;34.64;101509.97;5035244;28;20054;-63
2022/07/18 04:52:23;;;;;;;11.10;3.00;;;;;;;24.87;33.86;101517.44;5006525;28;1130650;-63
2022/07/18 04:54:50;;;;;;;6.47;2.50;;;;;;;24.92;34.91;101511.41;5027836;28;20048;-62
2022/07/18 04:57:18;;;;;;;9.65;3.17;;;;;;;24.83;34.91;101510.94;5017427;28;20056;-64
2022/07/18 04:59:46;;;;;;;6.25;2.80;;;;;;;24.87;34.91;101502.50;5043273;28;20053;-64
2022/07/18 05:02:13;;;;;;;9.38;2.90;;;;;;;24.85;35.21;101499.28;5025749;28;20050;-63
2022/07/18 05:04:40;;;;;;;6.43;2.60;;;;;;;24.94;35.63;101494.94;5021189;28;20045;-68
2022/07/18 05:07:08;;;;;;;12.45;3.53;;;;;;;24.83;34.46;101485.56;5031200;28;20513;-68
2022/07/18 05:09:35;;;;;;;11.45;3.38;;;;;;;25.00;35.02;101484.88;5032825;28;20041;-67
2022/07/18 05:12:03;;;;;;;9.00;3.20;;;;;;;25.12;34.27;101478.91;5034140;28;20133;-67
2022/07/18 05:14:30;;;;;;;8.38;2.55;;;;;;;25.06;34.62;101474.06;5034521;28;20068;-67
2022/07/18 05:16:57;;;;;;;8.50;3.20;;;;;;;25.15;34.21;101466.88;5026462;28;20053;-67
2022/07/18 05:19:25;;;;;;;8.40;2.88;;;;;;;25.14;33.25;101473.69;5031955;28;20083;-62
2022/07/18 05:21:52;;;;;;;9.48;3.00;;;;;;;25.19;33.75;101478.97;5032359;28;20049;-67
2022/07/18 05:24:19;;;;;;;6.95;2.80;;;;;;;25.16;33.00;101470.47;5032114;28;20057;-65
2022/07/18 05:26:47;;;;;;;6.35;2.60;;;;;;;25.13;32.76;101468.47;5036333;28;20050;-66
2022/07/18 05:29:15;;;;;;;9.25;3.35;;;;;;;25.09;34.07;101462.78;5032283;28;20581;-67
2022/07/18 05:31:43;;;;;;;9.63;2.90;;;;;;;25.18;33.05;101454.78;5030622;28;20049;-63
2022/07/18 05:34:10;;;;;;;15.55;2.47;;;;;;;25.24;32.55;101443.97;5031450;28;20053;-63
2022/07/18 05:36:37;;;;;;;8.95;2.53;;;;;;;24.99;31.84;101448.63;5033166;28;20045;-66
2022/07/18 05:39:05;;;;;;;13.60;2.97;;;;;;;25.02;32.40;101453.50;5046322;28;20053;-67
2022/07/18 05:41:32;;;;;;;7.28;2.20;;;;;;;25.16;31.81;101465.66;5031974;28;20385;-68
2022/07/18 05:43:59;;;;;;;7.22;2.60;;;;;;;25.16;30.91;101487.41;5033830;28;20050;-67
2022/07/18 05:46:27;;;;;;;9.13;2.50;;;;;;;24.80;31.82;101513.72;5033320;28;20045;-67
2022/07/18 05:48:54;;;;;;;11.18;2.80;;;;;;;24.72;31.90;101517.69;5031910;28;20057;-67
2022/07/18 05:51:22;;;;;;;9.38;2.85;;;;;;;24.62;32.24;101513.56;5033890;28;20405;-68
2022/07/18 05:53:49;;;;;;;9.82;2.53;;;;;;;24.97;32.15;101513.88;5028366;28;20058;-67
2022/07/18 05:56:17;;;;;;;9.75;2.53;;;;;;;24.88;31.79;101506.97;5016212;28;20109;-67
2022/07/18 05:58:44;;;;;;;8.55;2.35;;;;;;;25.22;31.53;101519.69;5017512;28;20513;-67
2022/07/18 06:01:19;;;;;;;13.98;2.70;;;;;;;25.20;31.19;101516.44;5025357;28;20103;-67
2022/07/18 06:03:47;;;;;;;7.13;2.40;;;;;;;25.13;31.27;101511.56;5027858;28;20065;-69
2022/07/18 06:06:15;;;;;;;9.45;2.70;;;;;;;25.15;31.46;101508.34;5023713;28;20053;-67
2022/07/18 06:08:42;;;;;;;6.03;2.45;;;;;;;25.07;31.31;101510.31;5026404;28;20060;-69
2022/07/18 06:11:10;;;;;;;8.13;2.60;;;;;;;25.36;31.98;101509.34;5028681;28;20057;-62
2022/07/18 06:13:39;;;;;;;9.40;2.80;;;;;;;25.66;31.22;101502.63;5032589;28;20077;-63
2022/07/18 06:16:07;;;;;;;8.23;2.40;;;;;;;25.82;31.28;101505.91;5023040;28;20053;-67
2022/07/18 06:18:35;;;;;;;6.57;2.20;;;;;;;25.66;30.70;101496.97;5042402;28;20307;-67
2022/07/18 06:21:03;;;;;;;10.48;2.78;;;;;;;25.71;31.72;101503.03;5024858;28;20575;-63
2022/07/18 06:23:30;;;;;;;8.50;2.38;;;;;;;25.69;31.76;101488.50;5028825;28;20053;-63
2022/07/18 06:25:58;;;;;;;10.45;2.60;;;;;;;25.68;31.10;101498.19;5026239;28;20044;-63
2022/07/18 06:28:25;;;;;;;11.45;3.00;;;;;;;26.12;30.49;101503.59;5028624;28;20053;-63
2022/07/18 06:30:53;;;;;;;10.10;2.92;;;;;;;26.16;30.32;101501.59;5029433;28;20066;-66
2022/07/18 06:33:21;;;;;;;6.25;2.22;;;;;;;25.97;29.98;101502.72;5034737;28;20056;-68
2022/07/18 06:35:48;;;;;;;10.70;2.40;;;;;;;26.02;30.41;101501.53;5045918;28;20068;-63
2022/07/18 06:38:16;;;;;;;10.85;2.80;;;;;;;25.93;30.08;101490.59;5034141;28;20057;-62
2022/07/18 06:40:44;;;;;;;6.88;2.10;;;;;;;26.03;30.26;101503.97;5032448;28;20483;-67
2022/07/18 06:43:13;;;;;;;9.32;2.47;;;;;;;26.17;31.06;101506.84;5024106;28;20045;-68
2022/07/18 06:45:40;;;;;;;12.20;2.80;;;;;;;26.23;31.56;101512.91;5025878;28;20057;-63
2022/07/18 06:48:09;;;;;;;9.82;2.03;;;;;;;26.38;30.47;101514.53;5026215;28;20049;-62
2022/07/18 06:50:36;;;;;;;7.05;2.30;;;;;;;25.93;29.59;101518.03;5023763;28;20054;-64
2022/07/18 06:53:04;;;;;;;7.97;2.50;;;;;;;26.13;31.16;101514.50;5028321;28;20053;-69
2022/07/18 06:55:32;;;;;;;15.45;2.90;;;;;;;26.20;33.26;101514.53;5034191;28;20049;-67
2022/07/18 06:57:59;;;;;;;11.32;2.63;;;;;;;26.42;30.57;101510.50;5033565;28;20056;-65
2022/07/18 07:00:26;;;;;;;13.38;2.83;;;;;;;26.79;30.41;101510.16;5028543;28;20041;-66
2022/07/18 07:02:54;;;;;;;19.27;7.45;;;;;;;27.11;31.92;101512.97;5026670;28;20056;-66
2022/07/18 07:05:22;;;;;;;15.20;7.32;;;;;;;27.28;33.57;101506.44;5029968;28;20393;-65
2022/07/18 07:07:49;;;;;;;16.15;3.80;;;;;;;27.22;30.11;101513.72;5030025;28;20045;-62
2022/07/18 07:10:17;;;;;;;12.13;2.85;;;;;;;27.23;31.02;101499.16;5030577;28;20520;-64
2022/07/18 07:12:49;;;;;;;12.15;3.08;;;;;;;27.33;30.15;101512.53;5028750;28;20057;-65
2022/07/18 07:15:21;;;;;;;10.07;3.10;;;;;;;27.46;29.99;101507.25;5035066;28;20639;-67
2022/07/18 07:17:49;;;;;;;11.43;2.80;;;;;;;27.60;29.72;101507.97;5021622;28;20058;-66
2022/07/18 07:20:20;;;;;;;12.07;2.72;;;;;;;27.63;30.03;101512.81;5031273;28;20076;-69
2022/07/18 07:22:53;;;;;;;16.52;3.53;;;;;;;27.62;29.75;101513.22;5034543;28;20053;-67
2022/07/18 07:25:22;;;;;;;11.57;1.98;;;;;;;27.47;28.15;101514.50;5033076;28;20376;-65
2022/07/18 07:27:51;;;;;;;11.20;2.28;;;;;;;27.59;27.92;101509.22;5033061;28;20060;-66
2022/07/18 07:30:19;;;;;;;11.45;2.45;;;;;;;27.34;27.66;101502.81;5035119;28;20740;-67
2022/07/18 07:32:47;;;;;;;11.48;3.13;;;;;;;27.18;28.58;101496.75;5043084;28;20551;-68
2022/07/18 07:35:16;;;;;;;9.93;2.75;;;;;;;27.40;28.51;101486.22;5036128;28;20182;-67
2022/07/18 07:37:52;;;;;;;15.93;3.00;;;;;;;27.72;28.91;101496.19;5032420;28;20072;-67
2022/07/18 07:40:20;;;;;;;11.73;2.75;;;;;;;27.91;28.59;101505.44;5032960;28;20056;-65
2022/07/18 07:42:47;;;;;;;8.90;2.83;;;;;;;28.05;28.05;101497.69;5016017;28;20055;-67
2022/07/18 07:45:14;;;;;;;14.95;2.58;;;;;;;28.37;27.76;101501.13;5033820;28;20053;-66
2022/07/18 07:47:42;;;;;;;9.25;2.60;;;;;;;28.51;27.33;101489.69;5036474;28;20606;-64
2022/07/18 07:50:11;;;;;;;15.40;2.50;;;;;;;28.53;27.26;101490.09;5032274;28;20045;-64
2022/07/18 07:52:38;;;;;;;17.47;2.37;;;;;;;28.50;26.80;101487.25;5042890;28;20614;-64
2022/07/18 07:55:06;;;;;;;9.75;2.50;;;;;;;28.68;27.38;101479.44;5060943;28;20041;-63
2022/07/18 07:57:35;;;;;;;12.20;2.80;;;;;;;28.80;27.42;101481.78;5035802;28;20041;-63
2022/07/18 08:00:06;;;;;;;17.83;2.70;;;;;;;28.87;27.04;101487.38;5037407;28;20060;-64
2022/07/18 08:03:03;;;;;;;11.25;2.78;;;;;;;29.18;27.47;101485.47;5038816;28;20056;-64
2022/07/18 08:05:37;;;;;;;20.02;2.83;;;;;;;29.31;26.84;101467.47;5038307;28;20373;-64
2022/07/18 08:08:06;;;;;;;11.38;2.72;;;;;;;29.31;26.03;101473.13;5036130;28;20049;-63
2022/07/18 08:10:34;;;;;;;12.60;2.55;;;;;;;29.25;26.43;101474.03;5022212;28;20058;-63
2022/07/18 08:13:09;;;;;;;8.65;2.35;;;;;;;29.33;26.75;101473.53;5041070;28;20081;-64
2022/07/18 08:15:37;;;;;;;15.40;3.03;;;;;;;29.48;26.75;101474.94;5034171;28;20050;-62
2022/07/18 08:18:05;;;;;;;14.63;2.67;;;;;;;29.82;26.13;101466.44;5034984;28;20048;-64
2022/07/18 08:20:33;;;;;;;15.00;2.50;;;;;;;30.19;25.97;101459.81;5027557;28;20045;-65
2022/07/18 08:23:03;;;;;;;10.40;2.30;;;;;;;30.09;26.62;101463.63;5039513;28;20056;-64
2022/07/18 08:25:31;;;;;;;;;;;;;;;29.98;25.63;101468.66;5035967;28;20052;-63
2022/07/18 08:27:59;;;;;;;11.48;3.20;;;;;;;29.83;25.55;101463.16;5059191;28;20229;-64
2022/07/18 08:30:27;;;;;;;15.02;3.17;;;;;;;30.19;25.92;101457.78;5000249;28;20506;-64
2022/07/18 08:32:54;;;;;;;10.90;2.70;;;;;;;30.24;25.75;101460.16;5029460;28;20060;-63
2022/07/18 08:35:22;;;;;;;11.32;2.42;;;;;;;30.36;26.01;101467.28;5035320;28;20800;-63
2022/07/18 08:37:49;;;;;;;14.65;2.60;;;;;;;30.32;25.54;101467.34;5031934;28;20049;-63
2022/07/18 08:40:16;;;;;;;8.45;2.60;;;;;;;30.29;25.47;101459.69;5036905;28;20058;-64
2022/07/18 08:42:44;;;;;;;13.10;2.28;;;;;;;30.47;25.80;101468.72;5038964;28;20045;-64
2022/07/18 08:45:31;;;;;;;12.35;2.60;;;;;;;30.50;25.10;101455.69;5023712;28;20063;-63
2022/07/18 08:47:59;;;;;;;14.10;2.70;;;;;;;29.97;25.53;101461.38;5032135;28;20049;-63
2022/07/18 08:50:26;;;;;;;10.07;2.75;;;;;;;30.37;25.23;101455.47;5037999;28;20044;-64
2022/07/18 08:52:55;;;;;;;15.80;2.67;;;;;;;30.65;25.23;101466.38;5033854;28;20062;-66
2022/07/18 08:55:22;;;;;;;12.55;3.10;;;;;;;30.54;24.91;101471.47;5030344;28;20060;-66
2022/07/18 08:57:53;;;;;;;10.68;2.53;;;;;;;30.65;24.74;101459.91;5043874;28;20037;-67
2022/07/18 09:00:21;;;;;;;11.35;2.92;;;;;;;31.12;24.30;101458.66;5053737;28;20052;-67
2022/07/18 09:03:03;;;;;;;13.95;2.95;;;;;;;30.95;24.67;101454.06;5036369;28;20049;-68
2022/07/18 09:05:32;;;;;;;10.82;2.72;;;;;;;30.33;24.96;101460.44;5029856;28;20053;-67
2022/07/18 09:08:19;;;;;;;13.80;3.00;;;;;;;30.59;25.19;101453.09;5036865;28;20380;-67
2022/07/18 09:10:51;;;;;;;16.13;2.40;;;;;;;30.73;24.69;101452.84;5030458;28;20625;-66
2022/07/18 09:13:22;;;;;;;12.70;2.30;;;;;;;30.75;24.55;101456.06;5034174;28;20053;-64
2022/07/18 09:16:03;;;;;;;9.27;2.65;;;;;;;30.78;24.44;101453.16;5031609;28;20084;-63
2022/07/18 09:18:35;;;;;;;16.77;2.90;;;;;;;31.04;23.88;101456.34;5029595;28;20060;-66
2022/07/18 09:21:17;;;;;;;9.45;2.78;;;;;;;31.15;24.08;101454.94;5038892;28;20060;-66
2022/07/18 09:23:49;;;;;;;10.10;2.88;;;;;;;31.57;24.17;101456.13;5037754;28;20080;-64
2022/07/18 09:26:33;;;;;;;8.23;2.92;;;;;;;31.22;23.42;101457.63;5048085;28;20545;-66
2022/07/18 09:29:01;;;;;;;14.15;3.10;;;;;;;31.14;23.48;101453.31;5029740;28;20492;-66
2022/07/18 09:31:49;;;;;;;11.98;3.10;;;;;;;31.26;23.16;101455.50;5021623;28;20516;-66
2022/07/18 09:34:38;;;;;;;13.30;3.40;;;;;;;31.53;23.01;101455.41;5033962;28;20060;-64
2022/07/18 09:37:11;;;;;;;16.02;3.40;;;;;;;31.80;22.72;101453.97;5038242;28;20060;-64
2022/07/18 09:39:39;;;;;;;11.13;3.20;;;;;;;31.95;22.54;101458.16;5029458;28;20052;-65
2022/07/18 09:42:17;;;;;;;9.45;3.60;;;;;;;31.89;22.56;101461.94;5031144;28;20084;-65
2022/07/18 09:44:58;;;;;;;14.13;3.50;;;;;;;31.86;22.77;101469.31;5039332;28;20050;-65
2022/07/18 09:47:26;;;;;;;14.13;3.30;;;;;;;31.92;22.34;101475.34;5059758;28;20083;-65
2022/07/18 09:49:54;;;;;;;10.77;2.97;;;;;;;31.91;22.52;101474.53;5035596;28;20041;-65
2022/07/18 09:52:22;;;;;;;9.43;3.58;;;;;;;31.82;22.86;101464.91;5040351;28;20080;-66
2022/07/18 09:54:50;;;;;;;7.28;3.05;;;;;;;31.72;23.02;101461.06;5043036;28;20068;-65
2022/07/18 09:57:25;;;;;;;15.98;3.38;;;;;;;31.48;22.91;101464.44;5038793;28;20052;-63
2022/07/18 09:59:53;;;;;;;10.95;3.35;;;;;;;31.31;23.36;101460.72;5032136;28;20057;-65
2022/07/18 10:02:20;;;;;;;18.42;3.65;;;;;;;31.38;23.13;101462.63;5038275;28;20052;-66
2022/07/18 10:04:47;;;;;;;10.30;2.78;;;;;;;31.50;23.50;101459.13;5029575;28;20060;-66
2022/07/18 10:07:15;;;;;;;10.48;2.80;;;;;;;31.82;23.15;101456.38;5037734;28;20064;-65
2022/07/18 10:09:44;;;;;;;9.00;3.00;;;;;;;31.67;22.95;101455.91;5039378;28;20056;-64
2022/07/18 10:12:15;;;;;;;9.02;2.30;;;;;;;31.30;23.09;101449.72;5028253;28;20053;-64
2022/07/18 10:14:43;;;;;;;9.93;2.65;;;;;;;31.15;22.72;101452.09;5029157;28;20405;-64
2022/07/18 10:17:11;;;;;;;9.65;2.75;;;;;;;31.46;23.06;101449.84;5033490;28;20053;-64
2022/07/18 10:19:38;;;;;;;5.55;2.30;;;;;;;31.39;23.29;101444.28;5032344;28;20056;-64
2022/07/18 10:22:07;;;;;;;11.98;2.75;;;;;;;31.47;23.96;101440.06;5039226;28;20043;-64
2022/07/18 10:24:39;;;;;;;13.68;2.33;;;;;;;31.45;23.44;101448.25;5055985;28;20061;-65
2022/07/18 10:27:15;;;;;;;13.45;2.25;;;;;;;31.67;22.94;101433.13;5032714;28;20129;-64
2022/07/18 10:30:09;;;;;;;8.75;2.83;;;;;;;31.84;22.91;101443.31;5057076;28;20053;-65
2022/07/18 10:32:37;;;;;;;12.20;2.78;;;;;;;31.75;22.83;101445.94;5031778;28;20045;-65
2022/07/18 10:35:08;;;;;;;11.20;2.60;;;;;;;31.56;22.87;101440.25;5022833;28;20063;-65
2022/07/18 10:37:35;;;;;;;6.13;2.65;;;;;;;31.69;22.56;101438.38;5041176;28;20048;-64
2022/07/18 10:40:22;;;;;;;12.30;2.58;;;;;;;31.64;22.76;101433.19;5034654;28;20120;-65
2022/07/18 10:43:29;;;;;;;10.02;2.85;;;;;;;31.70;22.64;101439.97;5029978;28;20068;-65
2022/07/18 10:45:57;;;;;;;13.63;5.38;;;;;;;31.94;22.76;101430.09;5029645;28;20069;-65
2022/07/18 10:48:52;;;;;;;11.63;6.28;;;;;;;32.13;22.48;101440.63;5038385;28;20053;-65
2022/07/18 10:51:20;;;;;;;8.73;2.80;;;;;;;32.11;22.11;101434.56;5027223;28;20061;-65
2022/07/18 10:53:59;;;;;;;13.60;2.80;;;;;;;32.17;22.58;101432.78;5034616;28;20134;-65
2022/07/18 10:56:27;;;;;;;;;;;;;;;32.30;22.59;101432.88;5029758;28;20041;-68
2022/07/18 10:59:14;;;;;;;6.93;2.35;;;;;;;32.20;22.26;101431.91;5029095;28;19928;-67
2022/07/18 11:01:48;;;;;;;7.68;2.38;;;;;;;32.05;22.97;101429.84;5036607;28;20053;-69
2022/07/18 11:04:36;;;;;;;14.52;2.53;;;;;;;32.25;22.46;101419.16;5034167;28;20056;-68
2022/07/18 11:07:14;;;;;;;14.07;3.42;;;;;;;32.46;22.54;101421.50;5034077;28;20053;-68
2022/07/18 11:09:46;;;;;;;10.13;3.17;;;;;;;32.57;22.44;101427.75;5026142;28;20065;-67
2022/07/18 11:12:29;;;;;;;6.72;2.50;;;;;;;32.73;21.84;101419.97;5023626;28;20377;-68
2022/07/18 11:14:59;;;;;;;6.93;2.53;;;;;;;32.94;22.06;101410.03;5041089;28;20049;-70
2022/07/18 11:17:59;;;;;;;9.20;2.30;;;;;;;32.78;21.63;101418.59;5019488;28;20042;-68
2022/07/18 11:20:39;;;;;;;9.40;2.47;;;;;;;32.74;21.80;101415.84;5036770;28;20053;-68
2022/07/18 11:23:15;;;;;;;7.10;2.92;;;;;;;32.86;21.90;101406.56;5034070;28;20069;-69
2022/07/18 11:25:44;;;;;;;7.10;2.17;;;;;;;32.87;21.61;101407.34;5030732;28;20072;-69
2022/07/18 11:28:27;;;;;;;6.60;1.80;;;;;;;33.04;20.89;101403.22;5036534;28;20481;-70
2022/07/18 11:31:04;;;;;;;8.18;2.67;;;;;;;33.02;21.21;101397.19;5034141;28;20060;-70
2022/07/18 11:33:35;;;;;;;7.93;2.80;;;;;;;32.86;21.24;101411.47;5034509;28;20488;-68
2022/07/18 11:36:08;;;;;;;6.63;2.90;;;;;;;33.29;21.40;101402.50;5031333;28;20548;-69
2022/07/18 11:38:39;;;;;;;6.68;2.40;;;;;;;33.02;21.72;101408.59;5042806;28;20084;-68